Terminal Aerodrome Forecast
Issued by NWS

Home | Current Version | Previous Version | Text Only | Print | Product List | Glossary On
Versions: 1 2 3 4 5 6 7 8 9 10 11 12 13 14 15 16 17
815
FTUS42 KTBW 170520
TAFPIE
TAF
KPIE 170520Z 1706/1806 03007KT P6SM SCT025 SCT050 BKN250
     FM171200 05010G15KT P6SM SCT025 BKN050 OVC130
     FM171800 05010KT P6SM VCSH SCT025 BKN040 OVC130
     FM180000 05012G17KT P6SM BKN040 OVC100=

USA.gov is the U.S. government's official web portal to all federal, state and local government web resources and services.